Time;durP1;ratioP1;P1;durP2;ratioP2;P2;SDS_P1;SDS_P2;PMS_P1;PMS_P2;Temp;Humidity;BMP_temperature;BMP_pressure;BME280_temperature;BME280_humidity;BME280_pressure;Samples;Min_cycle;Max_cycle;Signal;HPM_P1;HPM_P2
2022/01/14 00:00:34;;;;;;;27.70;21.10;;;1.90;99.90;;;;;;5033171;28;20254;-59
2022/01/14 00:03:00;;;;;;;32.33;20.43;;;1.90;99.90;;;;;;5033011;28;20174;-58
2022/01/14 00:05:26;;;;;;;29.50;19.03;;;1.90;99.90;;;;;;5031871;28;20186;-57
2022/01/14 00:07:51;;;;;;;25.00;17.87;;;1.80;99.90;;;;;;5032987;28;20182;-59
2022/01/14 00:10:17;;;;;;;29.47;20.60;;;1.90;99.90;;;;;;5015276;28;20176;-59
2022/01/14 00:12:51;;;;;;;31.37;22.00;;;1.90;99.90;;;;;;5032958;28;20266;-59
2022/01/14 00:15:26;;;;;;;28.13;20.67;;;2.00;99.90;;;;;;5033224;28;20210;-57
2022/01/14 00:17:53;;;;;;;30.07;22.97;;;2.00;99.90;;;;;;5033441;28;20409;-56
2022/01/14 00:20:20;;;;;;;28.67;20.13;;;2.00;99.90;;;;;;5032929;28;20805;-59
2022/01/14 00:22:46;;;;;;;30.73;22.60;;;2.00;99.90;;;;;;5032833;28;20455;-59
2022/01/14 00:33:09;;;;;;;28.70;21.57;;;2.10;99.90;;;;;;5032896;28;20393;-58
2022/01/14 00:35:40;;;;;;;28.73;19.73;;;2.10;99.90;;;;;;5033008;28;20445;-58
2022/01/14 00:38:06;;;;;;;25.30;18.90;;;2.20;99.90;;;;;;5032723;28;20379;-58
2022/01/14 00:40:32;;;;;;;30.93;20.57;;;2.20;99.90;;;;;;5032746;28;20417;-58
2022/01/14 00:42:58;;;;;;;26.23;21.50;;;2.20;99.90;;;;;;5032665;28;20171;-57
2022/01/14 00:45:23;;;;;;;25.87;21.60;;;2.20;99.90;;;;;;5032584;28;20568;-58
2022/01/14 00:47:49;;;;;;;26.77;22.47;;;2.30;99.90;;;;;;5032775;28;20170;-56
2022/01/14 00:50:16;;;;;;;30.17;22.33;;;2.30;99.90;;;;;;5031311;28;20261;-59
2022/01/14 00:52:43;;;;;;;23.67;20.33;;;2.20;99.90;;;;;;5032636;28;20210;-58
2022/01/14 00:55:13;;;;;;;32.53;23.57;;;2.20;99.90;;;;;;5032720;28;20512;-59
2022/01/14 01:00:21;;;;;;;31.03;22.03;;;2.10;99.90;;;;;;5036961;28;20471;-58
2022/01/14 01:02:47;;;;;;;27.27;22.30;;;2.10;99.90;;;;;;5036297;28;20494;-59
2022/01/14 01:05:13;;;;;;;31.70;23.47;;;2.10;99.90;;;;;;5034984;28;21011;-58
2022/01/14 01:07:45;;;;;;;34.40;25.87;;;2.00;99.90;;;;;;5036439;28;20277;-59
2022/01/14 01:10:12;;;;;;;32.80;24.37;;;1.90;99.90;;;;;;5036467;28;20386;-56
2022/01/14 01:15:16;;;;;;;30.67;24.23;;;1.90;99.90;;;;;;5036142;28;20492;-59
2022/01/14 01:17:42;;;;;;;29.97;25.63;;;2.00;99.90;;;;;;5036091;28;20401;-57
2022/01/14 01:20:11;;;;;;;31.47;24.60;;;2.00;99.90;;;;;;5035630;28;20401;-58
2022/01/14 01:22:36;;;;;;;32.47;23.57;;;2.10;99.90;;;;;;5035138;28;20632;-59
2022/01/14 01:25:03;;;;;;;33.50;23.27;;;2.10;99.90;;;;;;5036262;28;20479;-58
2022/01/14 01:27:31;;;;;;;28.83;22.93;;;2.10;99.90;;;;;;5035888;28;20183;-56
2022/01/14 01:30:12;;;;;;;33.63;25.70;;;2.10;99.90;;;;;;5036000;28;20418;-52
2022/01/14 01:32:38;;;;;;;34.07;25.47;;;2.00;99.90;;;;;;5036073;28;20397;-57
2022/01/14 01:35:04;;;;;;;29.67;22.13;;;2.00;99.90;;;;;;5036686;28;20465;-58
2022/01/14 01:37:30;;;;;;;29.50;23.53;;;2.00;99.90;;;;;;5036324;28;20399;-58
2022/01/14 01:39:55;;;;;;;30.20;23.73;;;2.00;99.90;;;;;;5036041;28;20550;-59
2022/01/14 01:42:27;;;;;;;35.43;25.53;;;2.00;99.90;;;;;;5034668;28;20761;-58
2022/01/14 01:44:53;;;;;;;32.03;25.53;;;1.90;99.90;;;;;;5016287;28;20559;-59
2022/01/14 01:47:21;;;;;;;35.97;24.27;;;1.80;99.90;;;;;;5016199;28;20414;-59
2022/01/14 01:49:47;;;;;;;26.63;22.30;;;1.80;99.90;;;;;;5015338;28;20641;-56
2022/01/14 01:52:13;;;;;;;28.63;22.77;;;1.80;99.90;;;;;;5015782;28;20494;-59
2022/01/14 01:54:39;;;;;;;30.80;22.33;;;1.70;99.90;;;;;;5015613;28;20656;-56
2022/01/14 01:57:04;;;;;;;32.80;24.77;;;1.80;99.90;;;;;;5015503;28;20164;-59
2022/01/14 01:59:30;;;;;;;32.07;24.40;;;1.80;99.90;;;;;;5012472;28;20655;-59
2022/01/14 02:02:01;;;;;;;30.77;23.70;;;1.80;99.90;;;;;;5006860;28;20440;-57
2022/01/14 02:04:28;;;;;;;32.33;23.57;;;1.80;99.90;;;;;;5014988;28;20426;-59
2022/01/14 02:06:55;;;;;;;31.97;23.10;;;1.80;99.90;;;;;;5015336;28;20410;-59
2022/01/14 02:09:22;;;;;;;30.40;23.20;;;1.90;99.90;;;;;;5031975;28;20421;-56
2022/01/14 02:11:48;;;;;;;35.10;25.37;;;1.90;99.90;;;;;;5034866;28;20411;-59
2022/01/14 02:14:41;;;;;;;28.67;22.83;;;1.80;99.90;;;;;;5034422;28;20873;-58
2022/01/14 02:19:42;;;;;;;34.13;25.37;;;1.70;99.90;;;;;;5015086;28;20410;-58
2022/01/14 02:22:10;;;;;;;31.33;23.87;;;1.80;99.90;;;;;;5015022;28;20402;-58
2022/01/14 02:27:08;;;;;;;33.60;23.30;;;1.80;99.90;;;;;;5015222;28;20454;-58
2022/01/14 02:29:33;;;;;;;33.57;25.07;;;1.90;99.90;;;;;;5015347;28;20410;-58
2022/01/14 02:31:59;;;;;;;37.23;23.83;;;2.00;99.90;;;;;;5014832;28;20749;-59
2022/01/14 02:34:25;;;;;;;36.20;26.50;;;1.90;99.90;;;;;;5014430;28;20211;-58
2022/01/14 02:36:52;;;;;;;28.33;21.90;;;1.80;99.90;;;;;;5014995;28;20171;-54
2022/01/14 02:39:19;;;;;;;34.60;24.23;;;1.70;99.90;;;;;;5031590;28;20418;-58
2022/01/14 02:41:47;;;;;;;30.33;21.87;;;1.70;99.90;;;;;;5034299;28;20453;-59
2022/01/14 02:44:20;;;;;;;36.30;26.50;;;1.70;99.90;;;;;;5034213;28;20437;-58
2022/01/14 02:47:05;;;;;;;36.47;25.53;;;1.70;99.90;;;;;;5034573;28;20448;-58
2022/01/14 02:49:34;;;;;;;32.67;23.70;;;1.70;99.90;;;;;;5034232;28;20397;-57
2022/01/14 02:52:03;;;;;;;31.13;23.60;;;1.70;99.90;;;;;;5034159;28;20402;-58
2022/01/14 02:54:41;;;;;;;30.70;23.33;;;1.70;99.90;;;;;;5034054;28;20442;-57
2022/01/14 02:57:09;;;;;;;28.93;23.07;;;1.70;99.90;;;;;;5034368;28;20397;-57
2022/01/14 02:59:37;;;;;;;31.80;24.47;;;1.70;99.90;;;;;;5033996;28;20405;-54
2022/01/14 03:02:06;;;;;;;30.87;23.87;;;1.70;99.90;;;;;;5034284;28;20449;-58
2022/01/14 03:04:36;;;;;;;34.37;25.43;;;1.70;99.90;;;;;;5033833;28;20421;-59
2022/01/14 03:07:03;;;;;;;34.10;25.00;;;1.70;99.90;;;;;;5033137;28;20536;-59
2022/01/14 03:09:28;;;;;;;33.60;25.30;;;1.70;99.90;;;;;;5034070;28;20408;-58
2022/01/14 03:11:56;;;;;;;34.20;24.90;;;1.60;99.90;;;;;;5034038;28;20822;-57
2022/01/14 03:14:24;;;;;;;30.83;24.03;;;1.70;99.90;;;;;;5033630;28;20277;-59
2022/01/14 03:16:51;;;;;;;31.47;23.90;;;1.70;99.90;;;;;;5033990;28;20410;-58
2022/01/14 03:19:21;;;;;;;29.47;23.53;;;1.70;99.90;;;;;;5033651;28;20406;-58
2022/01/14 03:21:50;;;;;;;27.07;21.03;;;1.70;99.90;;;;;;5033423;28;20389;-58
2022/01/14 03:25:36;;;;;;;32.13;24.70;;;1.80;99.90;;;;;;5033824;28;20437;-58
2022/01/14 03:27:07;;;;;;;31.17;23.10;;;1.80;99.90;;;;;;5033327;28;20407;-57
2022/01/14 03:29:33;;;;;;;39.60;27.23;;;1.90;99.90;;;;;;5033786;28;20407;-58
2022/01/14 03:31:59;;;;;;;33.20;24.30;;;1.80;99.90;;;;;;5032189;28;20196;-58
2022/01/14 03:34:25;;;;;;;30.03;24.80;;;1.70;99.90;;;;;;5001050;28;20566;-58
2022/01/14 03:36:50;;;;;;;34.63;23.93;;;1.70;99.90;;;;;;5010681;28;20579;-58
2022/01/14 03:39:17;;;;;;;36.77;25.00;;;1.70;99.90;;;;;;5033351;28;20402;-58
2022/01/14 03:41:43;;;;;;;31.87;22.97;;;1.60;99.90;;;;;;5033320;28;20247;-58
2022/01/14 03:44:09;;;;;;;32.20;24.13;;;1.60;99.90;;;;;;5033448;28;20519;-57
2022/01/14 03:46:35;;;;;;;32.10;23.87;;;1.70;99.90;;;;;;5033237;28;20223;-54
2022/01/14 03:49:00;;;;;;;33.67;24.30;;;1.60;99.90;;;;;;5033207;28;20175;-56
2022/01/14 03:51:27;;;;;;;34.93;26.33;;;1.70;99.90;;;;;;5033120;28;20172;-56
2022/01/14 03:53:54;;;;;;;35.30;24.73;;;1.70;99.90;;;;;;5032923;28;20190;-55
2022/01/14 03:56:19;;;;;;;34.90;24.67;;;1.60;99.90;;;;;;5033377;28;20484;-58
2022/01/14 03:58:45;;;;;;;32.20;24.93;;;1.60;99.90;;;;;;5033012;28;20902;-58
2022/01/14 04:01:12;;;;;;;32.17;24.00;;;1.60;99.90;;;;;;5033322;28;20216;-59
2022/01/14 04:03:40;;;;;;;35.40;24.20;;;1.60;99.90;;;;;;5032957;28;20651;-59
2022/01/14 04:06:06;;;;;;;36.03;26.07;;;1.50;99.90;;;;;;5032714;28;20920;-58
2022/01/14 04:08:32;;;;;;;27.20;21.50;;;1.60;99.90;;;;;;5032916;28;20421;-58
2022/01/14 04:11:00;;;;;;;32.60;24.03;;;1.60;99.90;;;;;;5033261;28;20484;-58
2022/01/14 04:13:39;;;;;;;34.87;25.77;;;1.60;99.90;;;;;;5033135;28;20474;-59
2022/01/14 04:16:06;;;;;;;29.27;22.37;;;1.60;99.90;;;;;;5033193;28;20800;-58
2022/01/14 04:18:31;;;;;;;32.67;24.60;;;1.50;99.90;;;;;;5030509;28;20897;-55
2022/01/14 04:20:57;;;;;;;32.83;24.57;;;1.50;99.90;;;;;;5012895;28;20413;-58
2022/01/14 04:23:23;;;;;;;31.10;23.73;;;1.50;99.90;;;;;;5013340;28;20184;-57
2022/01/14 04:25:53;;;;;;;33.27;26.73;;;1.40;99.90;;;;;;5013757;28;20544;-59
2022/01/14 04:28:27;;;;;;;35.20;24.30;;;1.40;99.90;;;;;;5029679;28;20431;-57
2022/01/14 04:30:56;;;;;;;33.70;25.10;;;1.30;99.90;;;;;;5033107;28;20405;-59
2022/01/14 04:33:27;;;;;;;41.23;26.90;;;1.30;99.90;;;;;;5036855;28;20466;-55
2022/01/14 04:35:54;;;;;;;33.70;27.97;;;1.20;99.90;;;;;;5036782;28;20484;-58
2022/01/14 04:38:21;;;;;;;30.97;23.93;;;1.30;99.90;;;;;;5037614;28;20902;-58
2022/01/14 04:40:46;;;;;;;40.37;28.63;;;1.40;99.90;;;;;;5036898;28;20398;-54
2022/01/14 04:43:16;;;;;;;38.03;27.30;;;1.30;99.90;;;;;;5037187;28;20406;-57
2022/01/14 04:45:54;;;;;;;33.50;26.23;;;1.30;99.90;;;;;;5037320;28;20187;-57
2022/01/14 04:48:19;;;;;;;31.73;24.10;;;1.30;99.90;;;;;;5036119;28;20419;-58
2022/01/14 04:50:45;;;;;;;29.80;22.93;;;1.30;99.90;;;;;;5036613;28;20405;-56
2022/01/14 04:53:11;;;;;;;34.20;27.47;;;1.40;99.90;;;;;;5036476;28;20182;-57
2022/01/14 04:55:37;;;;;;;29.57;24.53;;;1.40;99.90;;;;;;5036748;28;20199;-58
2022/01/14 04:58:03;;;;;;;35.67;24.77;;;1.50;99.90;;;;;;5037479;28;20524;-59
2022/01/14 05:00:29;;;;;;;32.63;23.80;;;1.40;99.90;;;;;;5036712;28;20865;-53
2022/01/14 05:02:55;;;;;;;33.20;23.77;;;1.40;99.90;;;;;;5036294;28;20412;-57
2022/01/14 05:05:27;;;;;;;37.83;27.93;;;1.40;99.90;;;;;;5036375;28;20198;-59
2022/01/14 05:07:53;;;;;;;37.03;28.80;;;1.30;99.90;;;;;;5036670;28;20754;-59
2022/01/14 05:12:49;;;;;;;28.83;22.90;;;1.30;99.90;;;;;;5036058;28;20166;-58
2022/01/14 05:15:16;;;;;;;30.87;24.60;;;1.40;99.90;;;;;;5036156;28;20461;-58
2022/01/14 05:17:42;;;;;;;30.93;25.23;;;1.50;99.90;;;;;;5035895;28;20485;-60
2022/01/14 05:20:09;;;;;;;27.73;23.37;;;1.50;99.90;;;;;;5035554;28;20886;-59
2022/01/14 05:22:36;;;;;;;31.83;24.50;;;1.50;99.90;;;;;;5036072;28;20906;-57
2022/01/14 05:25:02;;;;;;;27.77;22.53;;;1.50;99.90;;;;;;5035799;28;20426;-58
2022/01/14 05:27:27;;;;;;;29.23;22.10;;;1.50;99.90;;;;;;5036242;28;20405;-58
2022/01/14 05:29:53;;;;;;;29.13;20.50;;;1.40;99.90;;;;;;5031012;28;20784;-54
2022/01/14 05:32:20;;;;;;;25.07;20.60;;;1.40;99.90;;;;;;5012516;28;20546;-57
2022/01/14 05:34:46;;;;;;;27.23;21.60;;;1.50;99.90;;;;;;5013835;28;20629;-58
2022/01/14 05:37:12;;;;;;;25.87;20.83;;;1.50;99.90;;;;;;5018116;28;20425;-57
2022/01/14 05:39:38;;;;;;;26.37;21.67;;;1.50;99.90;;;;;;5035469;28;20292;-58
2022/01/14 05:42:05;;;;;;;26.93;20.30;;;1.50;99.90;;;;;;5035579;28;20434;-56
2022/01/14 05:44:31;;;;;;;28.30;22.87;;;1.50;99.90;;;;;;5034786;28;20776;-58
2022/01/14 05:46:59;;;;;;;24.67;20.33;;;1.50;99.90;;;;;;5035133;28;20412;-54
2022/01/14 05:49:26;;;;;;;26.37;21.40;;;1.40;99.90;;;;;;5035301;28;20475;-58
2022/01/14 05:51:52;;;;;;;23.63;18.47;;;1.40;99.90;;;;;;5035586;28;20402;-59
2022/01/14 05:54:19;;;;;;;24.53;18.20;;;1.40;99.90;;;;;;5017369;28;20791;-59
2022/01/14 05:56:44;;;;;;;26.40;19.80;;;1.40;99.90;;;;;;5033874;28;21242;-58
2022/01/14 05:59:11;;;;;;;25.67;20.27;;;1.40;99.90;;;;;;5035123;28;20405;-59
2022/01/14 06:01:37;;;;;;;23.53;20.63;;;1.40;99.90;;;;;;5035337;28;20175;-58
2022/01/14 06:04:04;;;;;;;24.90;19.83;;;1.30;99.90;;;;;;5033703;28;20490;-58
2022/01/14 06:06:31;;;;;;;28.63;21.90;;;1.40;99.90;;;;;;5017315;28;20429;-57
2022/01/14 06:08:57;;;;;;;27.17;21.13;;;1.40;99.90;;;;;;5035020;28;20779;-57
2022/01/14 06:11:25;;;;;;;26.20;19.70;;;1.40;99.90;;;;;;5035117;28;20416;-57
2022/01/14 06:13:50;;;;;;;22.70;18.90;;;1.40;99.90;;;;;;5033409;28;20654;-58
2022/01/14 06:16:16;;;;;;;22.77;19.77;;;1.40;99.90;;;;;;5034829;28;20452;-58
2022/01/14 06:18:42;;;;;;;25.23;19.07;;;1.30;99.90;;;;;;5035099;28;20193;-56
2022/01/14 06:21:08;;;;;;;21.73;18.27;;;1.30;99.90;;;;;;5021022;28;20168;-58
2022/01/14 06:23:34;;;;;;;21.50;16.97;;;1.30;99.90;;;;;;5014771;28;20849;-59
2022/01/14 06:26:01;;;;;;;20.53;16.43;;;1.30;99.90;;;;;;5015223;28;20422;-57
2022/01/14 06:28:27;;;;;;;23.83;17.20;;;1.30;99.90;;;;;;5009534;28;20923;-55
2022/01/14 06:30:52;;;;;;;25.60;20.03;;;1.40;99.90;;;;;;4997902;28;20425;-58
2022/01/14 06:33:18;;;;;;;25.80;19.50;;;1.40;99.90;;;;;;4995087;28;20177;-58
2022/01/14 06:35:44;;;;;;;25.50;18.13;;;1.40;99.90;;;;;;4995428;28;20187;-56
2022/01/14 06:38:10;;;;;;;21.13;17.77;;;1.40;99.90;;;;;;4995391;28;20412;-58
2022/01/14 06:40:37;;;;;;;28.77;19.70;;;1.50;99.90;;;;;;4995338;28;20204;-59
2022/01/14 06:43:04;;;;;;;22.97;18.23;;;1.40;99.90;;;;;;4977608;28;20436;-59
2022/01/14 06:45:30;;;;;;;26.00;19.80;;;1.40;99.90;;;;;;5030328;28;20422;-60
2022/01/14 06:47:56;;;;;;;25.33;19.40;;;1.40;99.90;;;;;;5034450;28;20409;-59
2022/01/14 06:50:21;;;;;;;18.20;16.30;;;1.40;99.90;;;;;;5034197;28;20497;-57
2022/01/14 06:52:47;;;;;;;19.13;15.60;;;1.40;99.90;;;;;;5034330;28;20165;-59
2022/01/14 06:55:13;;;;;;;22.43;17.17;;;1.50;99.90;;;;;;5033266;28;20449;-59
2022/01/14 06:57:39;;;;;;;20.40;15.47;;;1.50;99.90;;;;;;5034510;28;20210;-58
2022/01/14 07:00:12;;;;;;;20.67;16.17;;;1.50;99.90;;;;;;5033684;28;20659;-56
2022/01/14 07:02:38;;;;;;;22.37;16.07;;;1.60;99.90;;;;;;5033854;28;20406;-59
2022/01/14 07:05:04;;;;;;;23.33;15.67;;;1.50;99.90;;;;;;5033866;28;20424;-58
2022/01/14 07:07:31;;;;;;;22.93;17.50;;;1.50;99.90;;;;;;5033126;28;20410;-58
2022/01/14 07:09:57;;;;;;;21.00;17.93;;;1.50;99.90;;;;;;5033782;28;20438;-58
2022/01/14 07:12:31;;;;;;;17.00;13.47;;;1.50;99.90;;;;;;5033965;28;20464;-59
2022/01/14 07:14:57;;;;;;;19.67;14.90;;;1.50;99.90;;;;;;5033637;28;20454;-59
2022/01/14 07:17:23;;;;;;;16.60;12.37;;;1.40;99.90;;;;;;5033823;28;20400;-57
2022/01/14 07:19:51;;;;;;;14.93;13.27;;;1.40;99.90;;;;;;5033380;28;20165;-57
2022/01/14 07:22:17;;;;;;;16.23;13.23;;;1.50;99.90;;;;;;5033967;28;20405;-58
2022/01/14 07:24:43;;;;;;;14.83;12.80;;;1.50;99.90;;;;;;5033653;28;20433;-59
2022/01/14 07:27:09;;;;;;;15.47;12.57;;;1.50;99.90;;;;;;5033828;28;20462;-58
2022/01/14 07:29:34;;;;;;;13.27;11.00;;;1.50;99.90;;;;;;5033724;28;20172;-57
2022/01/14 07:32:00;;;;;;;11.63;9.00;;;1.40;99.90;;;;;;5033832;28;20180;-58
2022/01/14 07:34:26;;;;;;;12.70;10.13;;;1.40;99.90;;;;;;5054066;23;20615;-62
2022/01/14 07:36:52;;;;;;;14.90;11.87;;;1.40;99.90;;;;;;5042124;28;20206;-62
2022/01/14 07:39:19;;;;;;;10.90;9.70;;;1.30;99.90;;;;;;5033494;28;20400;-62
2022/01/14 07:41:46;;;;;;;11.47;9.53;;;1.20;99.90;;;;;;5021680;28;20416;-62
2022/01/14 07:44:11;;;;;;;16.33;11.77;;;1.20;99.90;;;;;;5053878;28;20457;-62
2022/01/14 07:46:37;;;;;;;12.53;10.50;;;1.20;99.90;;;;;;5053376;28;20462;-62
2022/01/14 07:49:03;;;;;;;16.40;13.73;;;1.30;99.90;;;;;;5053114;28;20406;-62
2022/01/14 07:51:29;;;;;;;15.23;12.93;;;1.30;99.90;;;;;;5035592;28;20220;-60
2022/01/14 07:53:56;;;;;;;17.90;12.80;;;1.40;99.90;;;;;;5052929;28;20865;-62
2022/01/14 07:56:22;;;;;;;15.27;13.20;;;1.50;99.90;;;;;;5051760;28;20210;-61
2022/01/14 07:58:48;;;;;;;15.17;13.43;;;1.50;99.90;;;;;;5053452;28;20796;-62
2022/01/14 08:01:14;;;;;;;14.00;11.07;;;1.50;99.90;;;;;;5053471;28;20458;-61
2022/01/14 08:03:40;;;;;;;16.43;12.40;;;1.50;99.90;;;;;;5053385;28;20433;-62
2022/01/14 08:06:05;;;;;;;16.20;12.93;;;1.60;99.90;;;;;;5052708;28;20186;-61
2022/01/14 08:08:32;;;;;;;16.60;12.83;;;1.60;99.90;;;;;;5053367;28;20172;-61
2022/01/14 08:10:58;;;;;;;16.43;12.70;;;1.60;99.90;;;;;;5053333;28;20246;-61
2022/01/14 08:13:24;;;;;;;15.30;13.10;;;1.70;99.90;;;;;;5052923;28;20857;-61
2022/01/14 08:15:49;;;;;;;14.93;13.30;;;1.70;99.90;;;;;;5026963;28;20521;-62
2022/01/14 08:18:15;;;;;;;16.00;12.47;;;1.70;99.90;;;;;;5033264;28;20835;-58
2022/01/14 08:20:41;;;;;;;19.40;14.73;;;1.70;99.90;;;;;;5049190;28;20620;-62
2022/01/14 08:23:06;;;;;;;19.00;16.00;;;1.70;99.90;;;;;;5052952;28;20411;-61
2022/01/14 08:25:32;;;;;;;19.47;13.93;;;1.80;99.90;;;;;;5052900;28;20685;-62
2022/01/14 08:27:58;;;;;;;18.40;14.93;;;1.80;99.90;;;;;;5052799;28;20162;-61
2022/01/14 08:30:23;;;;;;;16.37;14.40;;;1.90;99.90;;;;;;5052247;28;20666;-62
2022/01/14 08:32:50;;;;;;;15.20;13.47;;;2.00;99.90;;;;;;5053128;28;20646;-62
2022/01/14 08:35:16;;;;;;;15.60;13.90;;;2.00;99.90;;;;;;5052927;28;20339;-63
2022/01/14 08:37:41;;;;;;;15.60;13.03;;;2.10;99.90;;;;;;5053250;28;20893;-61
2022/01/14 08:40:09;;;;;;;16.70;13.63;;;2.10;99.90;;;;;;5052790;28;20178;-62
2022/01/14 08:42:35;;;;;;;19.60;14.90;;;2.20;99.90;;;;;;5052868;28;20638;-62
2022/01/14 08:45:01;;;;;;;18.40;15.70;;;2.10;99.90;;;;;;5053185;28;20428;-61
2022/01/14 08:47:27;;;;;;;14.03;12.53;;;2.20;99.90;;;;;;5053556;28;20431;-61
2022/01/14 08:49:52;;;;;;;14.63;12.43;;;2.20;99.90;;;;;;5051649;28;20429;-61
2022/01/14 08:52:18;;;;;;;17.83;14.13;;;2.30;99.90;;;;;;5053451;28;20171;-62
2022/01/14 08:54:43;;;;;;;17.27;13.47;;;2.40;99.90;;;;;;5053380;28;20195;-58
2022/01/14 08:57:09;;;;;;;15.90;13.87;;;2.50;99.90;;;;;;5035036;28;20167;-60
2022/01/14 08:59:36;;;;;;;18.70;13.90;;;2.60;99.90;;;;;;5035015;28;20163;-62
2022/01/14 09:02:03;;;;;;;16.33;13.00;;;2.60;99.90;;;;;;5052843;28;20401;-60
2022/01/14 09:04:29;;;;;;;14.67;12.00;;;2.70;99.90;;;;;;5052597;28;20516;-63
2022/01/14 09:06:55;;;;;;;16.50;13.27;;;2.80;99.90;;;;;;5054647;28;20436;-63
2022/01/14 09:09:20;;;;;;;15.13;13.50;;;2.80;99.90;;;;;;5036135;28;20167;-59
2022/01/14 09:11:46;;;;;;;14.80;12.80;;;2.80;99.90;;;;;;5051593;28;20479;-62
2022/01/14 09:14:12;;;;;;;13.40;11.60;;;2.90;99.90;;;;;;5052853;28;20217;-60
2022/01/14 09:16:38;;;;;;;15.20;11.60;;;3.00;99.90;;;;;;5053119;28;20198;-61
2022/01/14 09:19:04;;;;;;;21.77;13.87;;;3.00;99.90;;;;;;5053058;28;20182;-61
2022/01/14 09:21:30;;;;;;;13.50;11.73;;;3.20;99.90;;;;;;5038541;28;20401;-61
2022/01/14 09:24:04;;;;;;;18.03;13.10;;;3.20;99.90;;;;;;5038163;28;20170;-61
2022/01/14 09:26:34;;;;;;;15.90;14.00;;;3.10;99.90;;;;;;5056028;28;20395;-61
2022/01/14 09:29:02;;;;;;;14.10;12.53;;;3.20;99.90;;;;;;5056537;28;20812;-60
2022/01/14 09:31:28;;;;;;;17.50;13.80;;;3.30;99.90;;;;;;5056168;28;20458;-61
2022/01/14 09:33:53;;;;;;;17.57;13.40;;;3.10;99.90;;;;;;5055265;28;20413;-61
2022/01/14 09:36:19;;;;;;;21.00;16.10;;;3.20;99.90;;;;;;5055784;28;20540;-60
2022/01/14 09:38:46;;;;;;;16.60;13.30;;;3.30;99.90;;;;;;5056934;28;20178;-61
2022/01/14 09:41:13;;;;;;;15.80;12.70;;;3.40;99.90;;;;;;5056021;28;20243;-61
2022/01/14 09:43:39;;;;;;;15.43;13.80;;;3.60;99.90;;;;;;5055961;28;20432;-61
2022/01/14 09:46:07;;;;;;;15.23;12.67;;;3.80;99.90;;;;;;5056047;28;20439;-60
2022/01/14 09:48:34;;;;;;;18.13;14.13;;;3.90;99.90;;;;;;5055475;28;20558;-62
2022/01/14 09:51:02;;;;;;;17.20;14.40;;;4.00;99.90;;;;;;5055832;28;20767;-61
2022/01/14 09:53:29;;;;;;;14.27;12.20;;;4.10;99.90;;;;;;5055823;28;20454;-61
2022/01/14 09:55:55;;;;;;;17.40;15.10;;;4.20;99.90;;;;;;5055790;28;20460;-61
2022/01/14 09:58:25;;;;;;;14.43;12.90;;;4.30;99.90;;;;;;5056546;28;20417;-60
2022/01/14 10:01:04;;;;;;;17.23;15.33;;;4.30;99.90;;;;;;5055610;28;20158;-62
2022/01/14 10:03:31;;;;;;;18.53;15.93;;;4.40;99.90;;;;;;5055337;28;20386;-60
2022/01/14 10:05:57;;;;;;;18.47;15.90;;;4.50;99.90;;;;;;5055543;28;20425;-59
2022/01/14 10:08:26;;;;;;;19.60;17.47;;;4.60;99.90;;;;;;5055552;28;20989;-61
2022/01/14 10:10:59;;;;;;;20.23;17.20;;;4.70;99.90;;;;;;5055191;28;20397;-60
2022/01/14 10:13:33;;;;;;;20.43;16.53;;;4.70;99.90;;;;;;5050005;28;20444;-60
2022/01/14 10:16:08;;;;;;;19.00;17.00;;;4.70;99.90;;;;;;5035119;28;20523;-62
2022/01/14 10:18:35;;;;;;;19.80;16.90;;;4.80;99.90;;;;;;5035114;28;20378;-62
2022/01/14 10:21:03;;;;;;;26.80;19.60;;;5.00;99.90;;;;;;5035954;28;20460;-61
2022/01/14 10:23:52;;;;;;;24.47;19.03;;;5.20;99.90;;;;;;5043974;28;20417;-61
2022/01/14 10:26:18;;;;;;;20.07;17.97;;;5.20;99.90;;;;;;5052855;28;20385;-61
2022/01/14 10:29:02;;;;;;;23.03;20.53;;;5.30;99.90;;;;;;5023880;28;20776;-61
2022/01/14 10:31:36;;;;;;;23.23;19.20;;;5.40;99.90;;;;;;5034835;28;20410;-62
2022/01/14 10:34:16;;;;;;;24.27;17.83;;;5.40;99.90;;;;;;5016695;28;20429;-61
2022/01/14 10:36:46;;;;;;;22.60;18.80;;;5.50;99.90;;;;;;5034957;28;20488;-57
2022/01/14 10:39:43;;;;;;;20.40;17.97;;;5.50;99.90;;;;;;5034515;28;20409;-61
2022/01/14 10:42:41;;;;;;;22.83;19.13;;;5.60;99.90;;;;;;5013484;28;20437;-61
2022/01/14 10:45:21;;;;;;;21.20;17.37;;;5.70;99.90;;;;;;5001990;28;20438;-61
2022/01/14 10:48:01;;;;;;;21.40;18.40;;;5.80;99.90;;;;;;5034935;28;20848;-61
2022/01/14 10:50:30;;;;;;;22.50;19.37;;;5.70;99.90;;;;;;5030768;28;20426;-63
2022/01/14 10:52:56;;;;;;;23.57;20.83;;;5.80;99.90;;;;;;5037289;28;20407;-61
2022/01/14 10:55:49;;;;;;;26.97;23.43;;;5.70;99.90;;;;;;5034128;28;20463;-60
2022/01/14 10:58:23;;;;;;;27.10;22.63;;;5.70;99.90;;;;;;5033161;28;20416;-63
2022/01/14 11:00:59;;;;;;;30.67;24.07;;;5.60;99.90;;;;;;5034495;28;20389;-62
2022/01/14 11:03:56;;;;;;;26.83;23.10;;;5.60;99.90;;;;;;5034507;28;20386;-63
2022/01/14 11:06:33;;;;;;;29.37;24.53;;;5.60;99.90;;;;;;5033163;28;20415;-62
2022/01/14 11:09:05;;;;;;;24.77;21.87;;;6.00;99.90;;;;;;5054175;28;20387;-60
2022/01/14 11:11:34;;;;;;;28.10;21.93;;;7.50;99.90;;;;;;5053859;28;20457;-60
2022/01/14 11:14:01;;;;;;;23.57;20.97;;;9.70;99.90;;;;;;5053804;28;20393;-63
2022/01/14 11:16:27;;;;;;;25.87;21.47;;;11.20;99.90;;;;;;5053587;28;20445;-62
2022/01/14 11:18:56;;;;;;;21.90;19.63;;;12.80;98.50;;;;;;5053500;28;20410;-63
2022/01/14 11:24:06;;;;;;;22.57;20.20;;;14.80;92.90;;;;;;5053517;28;20468;-62
2022/01/14 11:26:35;;;;;;;24.23;21.60;;;15.00;91.90;;;;;;5052479;28;20442;-62
2022/01/14 11:29:10;;;;;;;26.40;21.20;;;15.60;90.70;;;;;;5053670;28;20173;-62
2022/01/14 11:31:38;;;;;;;25.40;22.33;;;16.60;88.10;;;;;;5054119;28;20392;-62
2022/01/14 11:34:07;;;;;;;22.00;19.70;;;17.50;82.70;;;;;;5052008;28;20512;-62
2022/01/14 11:37:11;;;;;;;21.10;18.90;;;18.10;81.00;;;;;;5053654;28;20439;-62
2022/01/14 11:39:38;;;;;;;22.17;19.80;;;19.00;76.30;;;;;;4992214;28;20438;-62
2022/01/14 11:42:12;;;;;;;21.43;19.13;;;19.60;73.50;;;;;;4991976;28;20415;-60
2022/01/14 11:44:44;;;;;;;20.23;18.20;;;20.20;69.70;;;;;;5024884;28;20433;-61
2022/01/14 11:47:21;;;;;;;21.00;18.70;;;20.60;67.80;;;;;;5053505;28;20405;-62
2022/01/14 11:49:47;;;;;;;20.23;18.30;;;21.10;65.60;;;;;;5053310;28;20767;-59
2022/01/14 11:52:13;;;;;;;21.03;18.93;;;20.40;64.40;;;;;;5039338;28;20490;-62
2022/01/14 11:54:46;;;;;;;20.63;18.53;;;20.10;64.50;;;;;;5033237;28;20186;-62
2022/01/14 11:57:40;;;;;;;20.57;18.40;;;19.50;65.20;;;;;;5033734;28;20235;-62
2022/01/14 12:00:30;;;;;;;21.37;19.17;;;19.50;65.70;;;;;;5033844;28;20402;-61
2022/01/14 12:02:57;;;;;;;21.87;19.77;;;20.00;64.60;;;;;;5015578;28;20398;-59
2022/01/14 12:05:24;;;;;;;20.93;19.13;;;20.90;63.10;;;;;;5033231;28;20449;-62
2022/01/14 12:08:05;;;;;;;20.17;18.37;;;21.80;61.10;;;;;;5032890;28;20985;-62
2022/01/14 12:10:35;;;;;;;20.53;18.63;;;22.30;59.30;;;;;;5033748;28;20398;-62
2022/01/14 12:13:38;;;;;;;19.43;17.43;;;22.80;58.20;;;;;;5033064;28;20902;-62
2022/01/14 12:16:35;;;;;;;21.30;19.10;;;23.00;57.70;;;;;;5032840;28;20468;-62
2022/01/14 12:19:03;;;;;;;19.87;18.00;;;22.60;58.30;;;;;;5033022;28;20402;-61
2022/01/14 12:21:41;;;;;;;18.77;16.83;;;23.10;56.60;;;;;;5027066;28;20773;-62
2022/01/14 12:24:34;;;;;;;23.17;20.87;;;23.30;56.40;;;;;;5052783;28;20433;-60
2022/01/14 12:27:08;;;;;;;20.17;18.10;;;23.50;55.40;;;;;;5050463;28;20409;-63
2022/01/14 12:29:35;;;;;;;20.30;18.17;;;23.60;54.20;;;;;;5053090;28;20714;-58
2022/01/14 12:32:05;;;;;;;21.63;19.47;;;23.40;54.50;;;;;;5052852;28;20455;-63
2022/01/14 12:34:39;;;;;;;20.83;18.60;;;23.40;54.00;;;;;;5052851;28;20800;-63
2022/01/14 12:37:07;;;;;;;20.27;18.30;;;23.60;53.70;;;;;;5053119;28;20389;-63
2022/01/14 12:39:33;;;;;;;20.03;17.93;;;23.90;52.70;;;;;;5052862;28;20405;-63
2022/01/14 12:42:00;;;;;;;20.97;18.70;;;23.60;53.60;;;;;;5052800;28;20397;-63
2022/01/14 12:44:27;;;;;;;20.83;18.83;;;23.80;52.80;;;;;;5052632;28;20784;-63
2022/01/14 12:47:01;;;;;;;20.47;18.50;;;23.70;52.40;;;;;;5052861;28;20401;-63
2022/01/14 12:49:32;;;;;;;20.77;18.57;;;22.40;52.90;;;;;;5051314;28;20466;-63
2022/01/14 12:52:09;;;;;;;21.20;19.07;;;20.10;56.20;;;;;;5052874;28;20413;-62
2022/01/14 12:54:42;;;;;;;24.10;21.80;;;17.40;60.30;;;;;;5055318;28;20417;-62
2022/01/14 12:57:09;;;;;;;23.17;20.87;;;15.40;65.10;;;;;;5056646;28;20407;-62
2022/01/14 12:59:48;;;;;;;26.83;20.67;;;13.90;68.90;;;;;;5056261;28;20404;-62
2022/01/14 13:02:20;;;;;;;24.70;22.07;;;12.70;73.20;;;;;;5056725;28;20384;-62
2022/01/14 13:05:05;;;;;;;21.77;19.60;;;11.50;78.80;;;;;;5056154;28;20441;-62
2022/01/14 13:07:31;;;;;;;23.00;20.57;;;11.00;83.40;;;;;;5056559;28;20477;-62